Time;durP1;ratioP1;P1;durP2;ratioP2;P2;SDS_P1;SDS_P2;PMS_P1;PMS_P2;Temp;Humidity;BMP_temperature;BMP_pressure;BME280_temperature;BME280_humidity;BME280_pressure;Samples;Min_cycle;Max_cycle;Signal;HPM_P1;HPM_P2
2022/11/18 00:00:16;;;;;;;8.87;2.57;;;;;;;;;;5266138;28;20110;-84
2022/11/18 00:02:47;;;;;;;6.32;2.30;;;;;;;;;;5269714;28;20255;-83
2022/11/18 00:05:18;;;;;;;9.30;3.00;;;;;;;;;;5267971;28;20060;-84
2022/11/18 00:07:49;;;;;;;8.03;2.60;;;;;;;;;;5265151;28;20272;-84
2022/11/18 00:10:20;;;;;;;7.53;2.55;;;;;;;;;;5282425;28;20824;-83
2022/11/18 00:15:42;;;;;;;7.40;2.30;;;;;;;;;;5283240;28;20076;-82
2022/11/18 00:18:13;;;;;;;8.32;2.60;;;;;;;;;;5281389;28;20455;-81
2022/11/18 00:20:44;;;;;;;7.75;2.35;;;;;;;;;;5278673;28;20058;-82
2022/11/18 00:23:15;;;;;;;10.43;2.80;;;;;;;;;;5265490;28;20116;-82
2022/11/18 00:25:47;;;;;;;8.85;2.88;;;;;;;;;;5284180;28;20096;-82
2022/11/18 00:28:18;;;;;;;6.38;2.45;;;;;;;;;;5279836;28;20057;-83
2022/11/18 00:30:49;;;;;;;8.70;2.90;;;;;;;;;;5278765;28;20025;-84
2022/11/18 00:33:20;;;;;;;7.63;2.60;;;;;;;;;;5273804;28;20248;-82
2022/11/18 00:35:52;;;;;;;7.97;2.57;;;;;;;;;;5259396;28;20370;-81
2022/11/18 00:38:24;;;;;;;7.28;2.30;;;;;;;;;;5267515;28;20271;-82
2022/11/18 00:40:59;;;;;;;7.22;2.42;;;;;;;;;;5282236;28;21421;-82
2022/11/18 00:43:31;;;;;;;7.13;2.50;;;;;;;;;;5277018;28;20052;-82
2022/11/18 00:46:03;;;;;;;9.55;2.40;;;;;;;;;;5278049;28;20460;-82
2022/11/18 00:48:34;;;;;;;8.88;2.97;;;;;;;;;;5271439;28;20049;-83
2022/11/18 00:51:08;;;;;;;8.00;2.25;;;;;;;;;;5273364;28;20037;-82
2022/11/18 00:53:39;;;;;;;8.30;2.78;;;;;;;;;;5276380;28;20032;-82
2022/11/18 00:56:10;;;;;;;10.85;2.90;;;;;;;;;;5279120;28;20029;-82
2022/11/18 00:58:41;;;;;;;7.05;2.38;;;;;;;;;;5279381;28;20037;-82
2022/11/18 01:01:12;;;;;;;5.93;2.40;;;;;;;;;;5278138;28;20068;-82
2022/11/18 01:03:44;;;;;;;10.27;2.67;;;;;;;;;;5279364;28;20052;-82
2022/11/18 01:06:15;;;;;;;5.00;2.65;;;;;;;;;;5267127;28;20370;-82
2022/11/18 01:08:46;;;;;;;6.35;2.20;;;;;;;;;;5259201;28;20560;-82
2022/11/18 01:14:07;;;;;;;6.93;2.45;;;;;;;;;;5281000;28;20727;-82
2022/11/18 01:16:38;;;;;;;6.57;2.57;;;;;;;;;;5283494;28;20028;-82
2022/11/18 01:19:09;;;;;;;6.87;2.60;;;;;;;;;;5264948;28;20292;-82
2022/11/18 01:21:41;;;;;;;4.18;2.65;;;;;;;;;;5264777;28;20318;-82
2022/11/18 01:24:12;;;;;;;7.90;2.53;;;;;;;;;;5280239;28;20044;-82
2022/11/18 01:26:43;;;;;;;5.63;2.50;;;;;;;;;;5282050;28;20268;-82
2022/11/18 01:29:14;;;;;;;4.47;2.13;;;;;;;;;;5264892;28;20045;-82
2022/11/18 01:31:45;;;;;;;5.37;2.00;;;;;;;;;;5278660;28;20031;-82
2022/11/18 01:34:17;;;;;;;11.35;3.25;;;;;;;;;;5263795;28;20641;-82
2022/11/18 01:36:50;;;;;;;6.93;3.03;;;;;;;;;;5278319;28;20489;-82
2022/11/18 01:39:21;;;;;;;5.40;2.70;;;;;;;;;;5279910;28;20111;-82
2022/11/18 01:41:53;;;;;;;9.07;2.47;;;;;;;;;;5262502;28;20031;-82
2022/11/18 01:44:43;;;;;;;5.83;2.40;;;;;;;;;;5264260;28;20272;-82
2022/11/18 01:47:14;;;;;;;9.48;3.10;;;;;;;;;;5277523;28;20360;-81
2022/11/18 01:49:45;;;;;;;7.25;2.38;;;;;;;;;;5275954;28;20071;-81
2022/11/18 01:52:16;;;;;;;7.53;2.50;;;;;;;;;;5280931;28;20128;-82
2022/11/18 01:54:52;;;;;;;7.55;2.00;;;;;;;;;;5279913;28;20044;-82
2022/11/18 01:57:26;;;;;;;5.47;2.22;;;;;;;;;;5263341;28;20037;-82
2022/11/18 01:59:59;;;;;;;5.93;2.42;;;;;;;;;;5261510;28;20447;-83
2022/11/18 02:02:34;;;;;;;8.57;3.03;;;;;;;;;;5278214;28;20032;-83
2022/11/18 02:05:06;;;;;;;3.35;1.92;;;;;;;;;;5276753;28;20041;-83
2022/11/18 02:07:39;;;;;;;5.68;2.85;;;;;;;;;;5264250;28;20068;-82
2022/11/18 02:10:21;;;;;;;8.18;2.72;;;;;;;;;;5260213;28;20033;-82
2022/11/18 02:12:53;;;;;;;5.45;2.42;;;;;;;;;;5264223;28;20029;-84
2022/11/18 02:15:31;;;;;;;4.80;2.22;;;;;;;;;;5261822;28;20045;-82
2022/11/18 02:18:08;;;;;;;8.00;2.25;;;;;;;;;;5280785;28;20477;-82
2022/11/18 02:20:41;;;;;;;4.80;2.67;;;;;;;;;;5277265;28;20060;-82
2022/11/18 02:23:27;;;;;;;6.38;2.30;;;;;;;;;;5264064;28;20036;-81
2022/11/18 02:26:16;;;;;;;9.15;3.17;;;;;;;;;;5278081;28;20029;-82
2022/11/18 02:29:07;;;;;;;6.20;2.30;;;;;;;;;;5262236;28;20116;-82
2022/11/18 02:31:47;;;;;;;8.50;2.80;;;;;;;;;;5276391;28;20104;-83
2022/11/18 02:34:37;;;;;;;4.15;2.50;;;;;;;;;;5257359;28;20125;-83
2022/11/18 02:37:23;;;;;;;5.97;2.90;;;;;;;;;;5276468;28;20063;-82
2022/11/18 02:40:00;;;;;;;8.10;2.40;;;;;;;;;;5275211;28;20433;-84
2022/11/18 02:42:34;;;;;;;6.07;2.38;;;;;;;;;;5264277;28;20037;-83
2022/11/18 02:45:07;;;;;;;6.25;2.40;;;;;;;;;;5279365;28;20524;-82
2022/11/18 02:47:39;;;;;;;5.00;2.30;;;;;;;;;;5262071;28;20048;-84
2022/11/18 02:50:14;;;;;;;4.07;2.08;;;;;;;;;;5261827;28;20087;-82
2022/11/18 02:52:48;;;;;;;7.20;3.08;;;;;;;;;;5264574;28;20116;-83
2022/11/18 02:55:20;;;;;;;7.35;2.30;;;;;;;;;;5261246;28;20029;-82
2022/11/18 02:57:52;;;;;;;7.15;2.85;;;;;;;;;;5281364;28;20021;-83
2022/11/18 03:00:23;;;;;;;5.32;2.20;;;;;;;;;;5277053;28;20481;-83
2022/11/18 03:02:54;;;;;;;7.73;2.23;;;;;;;;;;5278693;28;20043;-82
2022/11/18 03:05:29;;;;;;;4.65;2.63;;;;;;;;;;5261740;28;20274;-82
2022/11/18 03:08:05;;;;;;;8.35;2.88;;;;;;;;;;5260774;28;20021;-82
2022/11/18 03:10:41;;;;;;;8.50;2.75;;;;;;;;;;5258705;28;20045;-82
2022/11/18 03:13:13;;;;;;;;;;;;;;;;;;5277369;28;20037;-82
2022/11/18 03:15:51;;;;;;;5.70;2.65;;;;;;;;;;5260050;28;19967;-82
2022/11/18 03:18:28;;;;;;;6.93;2.95;;;;;;;;;;5262876;28;20033;-81
2022/11/18 03:21:22;;;;;;;5.10;2.50;;;;;;;;;;5277639;28;20077;-81
2022/11/18 03:23:56;;;;;;;6.55;2.70;;;;;;;;;;5277740;28;20412;-82
2022/11/18 03:26:32;;;;;;;8.20;3.50;;;;;;;;;;5276079;28;20489;-82
2022/11/18 03:29:06;;;;;;;5.60;2.97;;;;;;;;;;5265583;28;20559;-84
2022/11/18 03:31:39;;;;;;;8.63;2.63;;;;;;;;;;5261835;28;20025;-82
2022/11/18 03:34:16;;;;;;;9.85;2.67;;;;;;;;;;5278378;28;20024;-81
2022/11/18 03:36:50;;;;;;;7.20;2.70;;;;;;;;;;5260457;28;20032;-83
2022/11/18 03:39:24;;;;;;;6.50;2.80;;;;;;;;;;5261863;28;20075;-82
2022/11/18 03:42:08;;;;;;;7.60;2.75;;;;;;;;;;5260950;28;20417;-82
2022/11/18 03:44:42;;;;;;;7.22;3.03;;;;;;;;;;5277505;28;20040;-83
2022/11/18 03:47:16;;;;;;;10.65;2.60;;;;;;;;;;5277405;28;20073;-82
2022/11/18 03:49:50;;;;;;;4.68;2.50;;;;;;;;;;5275911;28;20029;-83
2022/11/18 03:52:24;;;;;;;6.18;2.80;;;;;;;;;;5277911;28;20033;-82
2022/11/18 03:54:56;;;;;;;9.00;2.60;;;;;;;;;;5258946;28;20037;-82
2022/11/18 03:57:37;;;;;;;10.57;3.08;;;;;;;;;;5277855;28;20029;-82
2022/11/18 04:00:10;;;;;;;5.43;2.65;;;;;;;;;;5275965;28;20393;-82
2022/11/18 04:02:41;;;;;;;6.75;2.70;;;;;;;;;;5262591;28;20025;-82
2022/11/18 04:05:14;;;;;;;6.47;3.05;;;;;;;;;;5260478;28;20032;-82
2022/11/18 04:07:45;;;;;;;5.05;2.30;;;;;;;;;;5260248;28;20025;-82
2022/11/18 04:10:17;;;;;;;6.47;2.47;;;;;;;;;;5259213;28;20037;-82
2022/11/18 04:12:52;;;;;;;7.90;2.80;;;;;;;;;;5276249;28;20461;-82
2022/11/18 04:15:24;;;;;;;5.20;2.50;;;;;;;;;;5275764;28;20044;-82
2022/11/18 04:17:55;;;;;;;5.10;2.28;;;;;;;;;;5262229;28;20473;-82
2022/11/18 04:20:27;;;;;;;5.13;2.42;;;;;;;;;;5279033;28;20047;-82
2022/11/18 04:22:59;;;;;;;9.15;3.20;;;;;;;;;;5278628;28;20029;-82
2022/11/18 04:25:30;;;;;;;6.75;2.80;;;;;;;;;;5275605;28;20048;-82
2022/11/18 04:28:01;;;;;;;7.57;2.92;;;;;;;;;;5266778;28;20358;-83
2022/11/18 04:30:33;;;;;;;6.68;2.95;;;;;;;;;;5274253;28;20037;-83
2022/11/18 04:33:04;;;;;;;6.78;3.47;;;;;;;;;;5267993;28;20075;-83
2022/11/18 04:35:35;;;;;;;5.95;2.88;;;;;;;;;;5264684;28;20791;-83
2022/11/18 04:38:06;;;;;;;8.47;3.70;;;;;;;;;;5262826;28;20405;-83
2022/11/18 04:40:37;;;;;;;7.23;3.03;;;;;;;;;;5276059;28;20263;-83
2022/11/18 04:43:08;;;;;;;5.83;3.00;;;;;;;;;;5262392;28;20256;-83
2022/11/18 04:45:40;;;;;;;9.87;3.47;;;;;;;;;;5272484;28;20290;-83
2022/11/18 04:48:11;;;;;;;8.17;3.47;;;;;;;;;;5277365;28;20754;-83
2022/11/18 04:50:42;;;;;;;9.20;4.25;;;;;;;;;;5280904;28;20306;-83
2022/11/18 04:53:13;;;;;;;13.83;4.00;;;;;;;;;;5282463;28;20029;-84
2022/11/18 04:55:44;;;;;;;8.15;4.03;;;;;;;;;;5267580;28;20043;-84
2022/11/18 04:58:16;;;;;;;8.88;4.28;;;;;;;;;;5266257;28;20032;-83
2022/11/18 05:00:49;;;;;;;6.93;4.47;;;;;;;;;;5259733;28;20029;-83
2022/11/18 05:03:20;;;;;;;9.05;4.40;;;;;;;;;;5262014;28;20768;-83
2022/11/18 05:05:51;;;;;;;9.57;4.63;;;;;;;;;;5265728;28;20029;-83
2022/11/18 05:08:22;;;;;;;11.57;4.60;;;;;;;;;;5265624;28;20029;-83
2022/11/18 05:12:47;;;;;;;8.87;4.40;;;;;;;;;;5273288;28;20679;-83
2022/11/18 05:13:45;;;;;;;11.43;5.47;;;;;;;;;;5279000;28;20361;-83
2022/11/18 05:16:16;;;;;;;11.27;4.60;;;;;;;;;;5280519;28;20021;-83
2022/11/18 05:18:47;;;;;;;9.82;5.63;;;;;;;;;;5282569;28;20029;-83
2022/11/18 05:21:19;;;;;;;14.10;5.28;;;;;;;;;;5263430;28;20032;-82
2022/11/18 05:23:50;;;;;;;7.90;4.53;;;;;;;;;;5263892;28;21150;-82
2022/11/18 05:26:21;;;;;;;7.83;5.03;;;;;;;;;;5279579;28;20271;-82
2022/11/18 05:28:52;;;;;;;9.30;5.13;;;;;;;;;;5263408;28;20284;-82
2022/11/18 05:31:23;;;;;;;10.20;5.20;;;;;;;;;;5263111;28;20738;-84
2022/11/18 05:33:55;;;;;;;10.43;5.47;;;;;;;;;;5261277;28;20582;-82
2022/11/18 05:36:26;;;;;;;11.75;5.60;;;;;;;;;;5261403;28;20041;-82
2022/11/18 05:38:57;;;;;;;10.70;6.07;;;;;;;;;;5278922;28;20048;-83
2022/11/18 05:44:19;;;;;;;11.75;5.75;;;;;;;;;;5279473;28;20036;-84
2022/11/18 05:46:50;;;;;;;14.43;5.23;;;;;;;;;;5262107;28;20028;-82
2022/11/18 05:49:21;;;;;;;13.80;6.13;;;;;;;;;;5264598;28;20383;-85
2022/11/18 05:51:53;;;;;;;10.20;5.60;;;;;;;;;;5259610;28;20366;-82
2022/11/18 05:54:24;;;;;;;10.17;6.23;;;;;;;;;;5283952;28;20035;-82
2022/11/18 05:56:55;;;;;;;13.07;6.20;;;;;;;;;;5279862;28;20302;-82
2022/11/18 05:59:26;;;;;;;10.27;5.82;;;;;;;;;;5265108;28;20029;-82
2022/11/18 06:02:06;;;;;;;14.90;6.93;;;;;;;;;;5278049;28;20036;-84
2022/11/18 06:04:43;;;;;;;13.27;6.35;;;;;;;;;;5276520;28;20032;-82
2022/11/18 06:07:14;;;;;;;;;;;;;;;;;;5281638;28;20021;-81
2022/11/18 06:09:48;;;;;;;13.98;6.85;;;;;;;;;;5281236;28;20511;-81
2022/11/18 06:12:21;;;;;;;12.13;6.80;;;;;;;;;;5261079;28;20021;-84
2022/11/18 06:14:55;;;;;;;16.25;6.88;;;;;;;;;;5262750;28;20040;-82
2022/11/18 06:17:29;;;;;;;10.48;6.70;;;;;;;;;;5260278;28;20060;-82
2022/11/18 06:20:03;;;;;;;12.55;7.03;;;;;;;;;;5275259;28;20060;-82
2022/11/18 06:22:35;;;;;;;13.50;6.40;;;;;;;;;;5262290;28;20040;-82
2022/11/18 06:25:06;;;;;;;10.93;6.68;;;;;;;;;;5276875;28;20037;-82
2022/11/18 06:27:37;;;;;;;14.75;7.45;;;;;;;;;;5265291;28;20056;-82
2022/11/18 06:30:09;;;;;;;15.97;7.07;;;;;;;;;;5266540;28;20037;-82
2022/11/18 06:32:40;;;;;;;14.70;6.72;;;;;;;;;;5263544;28;21582;-84
2022/11/18 06:35:11;;;;;;;15.83;6.47;;;;;;;;;;5260408;28;20485;-82
2022/11/18 06:37:43;;;;;;;11.35;7.18;;;;;;;;;;5260662;28;20288;-82
2022/11/18 06:40:14;;;;;;;11.65;7.57;;;;;;;;;;5273675;28;20122;-84
2022/11/18 06:45:35;;;;;;;14.32;7.68;;;;;;;;;;5278802;28;21195;-83
2022/11/18 06:48:06;;;;;;;11.73;7.22;;;;;;;;;;5261350;28;20126;-83
2022/11/18 06:50:38;;;;;;;14.23;8.03;;;;;;;;;;5284250;28;20083;-83
2022/11/18 06:53:09;;;;;;;12.60;7.30;;;;;;;;;;5282660;28;20279;-83
2022/11/18 06:55:40;;;;;;;13.82;8.63;;;;;;;;;;5263208;28;20371;-82
2022/11/18 06:58:11;;;;;;;15.13;8.77;;;;;;;;;;5287576;28;20464;-83
2022/11/18 07:00:43;;;;;;;11.40;7.53;;;;;;;;;;5265825;28;20292;-82
2022/11/18 07:03:14;;;;;;;13.45;8.32;;;;;;;;;;5280345;28;20308;-82
2022/11/18 07:05:45;;;;;;;15.67;8.93;;;;;;;;;;5262413;28;20115;-82
2022/11/18 07:08:16;;;;;;;14.07;7.70;;;;;;;;;;5279407;28;20656;-83
2022/11/18 07:10:51;;;;;;;12.40;7.37;;;;;;;;;;5263133;28;20298;-83
2022/11/18 07:13:23;;;;;;;11.30;6.80;;;;;;;;;;5280741;28;20293;-82
2022/11/18 07:15:54;;;;;;;12.52;8.18;;;;;;;;;;5261899;28;20549;-82
2022/11/18 07:18:25;;;;;;;14.05;8.25;;;;;;;;;;5276005;28;20037;-83
2022/11/18 07:20:59;;;;;;;14.57;8.82;;;;;;;;;;5265290;28;20048;-83
2022/11/18 07:23:31;;;;;;;14.57;8.93;;;;;;;;;;5260218;28;20052;-83
2022/11/18 07:26:35;;;;;;;16.27;9.02;;;;;;;;;;5288133;28;20083;-81
2022/11/18 07:29:53;;;;;;;13.48;8.18;;;;;;;;;;5188704;28;20051;-83
2022/11/18 07:32:25;;;;;;;16.20;7.80;;;;;;;;;;5232335;28;20057;-83
2022/11/18 07:34:58;;;;;;;13.32;8.05;;;;;;;;;;5264387;28;20037;-83
2022/11/18 07:37:29;;;;;;;14.43;8.55;;;;;;;;;;5266884;28;20061;-81
2022/11/18 07:40:01;;;;;;;10.40;7.70;;;;;;;;;;5258386;28;20791;-81
2022/11/18 07:42:41;;;;;;;15.27;8.82;;;;;;;;;;5271958;28;20033;-81
2022/11/18 07:45:12;;;;;;;14.65;8.68;;;;;;;;;;5288708;28;20043;-81
2022/11/18 07:47:55;;;;;;;12.27;6.97;;;;;;;;;;5283413;28;20033;-82
2022/11/18 07:50:26;;;;;;;12.73;6.82;;;;;;;;;;5260476;28;20640;-82
2022/11/18 07:52:57;;;;;;;7.65;5.38;;;;;;;;;;5277541;28;20025;-82
2022/11/18 07:55:31;;;;;;;12.32;6.07;;;;;;;;;;5274234;28;20079;-82
2022/11/18 07:58:02;;;;;;;14.32;7.40;;;;;;;;;;5261355;28;20057;-82
2022/11/18 08:00:33;;;;;;;11.02;6.85;;;;;;;;;;5252177;28;20059;-82
2022/11/18 08:03:05;;;;;;;8.98;5.07;;;;;;;;;;5264191;28;20020;-81
2022/11/18 08:05:36;;;;;;;12.10;5.93;;;;;;;;;;5281615;28;20432;-82
2022/11/18 08:08:07;;;;;;;8.18;5.28;;;;;;;;;;5281581;28;20021;-82
2022/11/18 08:10:39;;;;;;;11.57;5.38;;;;;;;;;;5264511;28;20435;-82
2022/11/18 08:13:10;;;;;;;8.82;5.50;;;;;;;;;;5282766;28;20017;-81
2022/11/18 08:15:41;;;;;;;13.70;5.87;;;;;;;;;;5283060;28;20037;-82
2022/11/18 08:18:13;;;;;;;15.48;6.85;;;;;;;;;;5263838;28;20264;-81
2022/11/18 08:20:44;;;;;;;12.25;5.60;;;;;;;;;;5281373;28;20039;-81
2022/11/18 08:23:15;;;;;;;7.47;5.65;;;;;;;;;;5263928;28;20350;-82
2022/11/18 08:25:47;;;;;;;12.40;6.07;;;;;;;;;;5289048;28;20033;-82
2022/11/18 08:28:18;;;;;;;12.17;6.10;;;;;;;;;;5281413;28;20037;-81
2022/11/18 08:30:49;;;;;;;13.13;6.20;;;;;;;;;;5282369;28;20271;-81
2022/11/18 08:33:20;;;;;;;10.10;6.13;;;;;;;;;;5265156;28;20287;-82
2022/11/18 08:35:51;;;;;;;11.25;6.07;;;;;;;;;;5284200;28;20795;-81
2022/11/18 08:38:23;;;;;;;9.40;6.25;;;;;;;;;;5277284;28;20394;-82
2022/11/18 08:40:54;;;;;;;10.70;7.17;;;;;;;;;;5263577;28;20017;-81
2022/11/18 08:43:25;;;;;;;12.35;7.35;;;;;;;;;;5283033;28;20648;-82
2022/11/18 08:45:56;;;;;;;10.77;6.73;;;;;;;;;;5266591;28;20033;-80
2022/11/18 08:48:27;;;;;;;9.03;5.90;;;;;;;;;;5282697;28;20053;-80
2022/11/18 08:50:59;;;;;;;9.80;6.40;;;;;;;;;;5284468;28;20839;-81
2022/11/18 08:53:31;;;;;;;9.55;5.47;;;;;;;;;;5267148;28;20096;-81
2022/11/18 08:56:02;;;;;;;7.45;5.50;;;;;;;;;;5282327;28;20044;-80
2022/11/18 08:58:34;;;;;;;9.55;5.32;;;;;;;;;;5283935;28;20013;-81
2022/11/18 09:01:05;;;;;;;10.67;5.40;;;;;;;;;;5281321;28;20064;-80
2022/11/18 09:03:36;;;;;;;7.05;4.85;;;;;;;;;;5262022;28;20277;-79
2022/11/18 09:06:09;;;;;;;8.40;5.05;;;;;;;;;;5259991;28;20067;-80
2022/11/18 09:08:40;;;;;;;10.50;5.22;;;;;;;;;;5259637;28;20033;-81
2022/11/18 09:11:16;;;;;;;9.15;4.57;;;;;;;;;;5264795;28;20517;-81
2022/11/18 09:13:50;;;;;;;9.38;4.95;;;;;;;;;;5283458;28;20025;-81
2022/11/18 09:16:25;;;;;;;8.98;4.47;;;;;;;;;;5267318;28;20029;-81
2022/11/18 09:18:57;;;;;;;9.13;4.63;;;;;;;;;;5285250;28;20017;-81
2022/11/18 09:21:28;;;;;;;6.75;4.13;;;;;;;;;;5267350;28;20035;-81
2022/11/18 09:24:02;;;;;;;11.75;4.20;;;;;;;;;;5285436;28;20032;-81
2022/11/18 09:26:35;;;;;;;10.25;4.45;;;;;;;;;;5284277;28;20035;-81
2022/11/18 09:29:07;;;;;;;11.75;4.60;;;;;;;;;;5285182;28;20433;-81
2022/11/18 09:31:38;;;;;;;6.55;3.90;;;;;;;;;;5285374;28;20028;-81
2022/11/18 09:34:09;;;;;;;11.60;3.77;;;;;;;;;;5285125;28;20120;-81
2022/11/18 09:36:40;;;;;;;7.22;4.00;;;;;;;;;;5285917;28;20260;-82
2022/11/18 09:39:12;;;;;;;8.23;4.33;;;;;;;;;;5286051;28;20079;-80
2022/11/18 09:41:43;;;;;;;11.88;4.80;;;;;;;;;;5267149;28;20287;-81
2022/11/18 09:44:34;;;;;;;9.73;4.20;;;;;;;;;;5285372;28;20077;-81
2022/11/18 09:47:11;;;;;;;6.13;3.95;;;;;;;;;;5266599;28;20555;-81
2022/11/18 09:49:43;;;;;;;8.10;3.80;;;;;;;;;;5285614;28;20040;-83
2022/11/18 09:52:23;;;;;;;8.85;4.05;;;;;;;;;;5282534;28;20033;-82
2022/11/18 09:54:54;;;;;;;8.45;3.65;;;;;;;;;;5284769;28;20103;-82
2022/11/18 09:57:30;;;;;;;7.97;3.53;;;;;;;;;;5287469;28;20156;-81
2022/11/18 10:00:05;;;;;;;8.27;3.95;;;;;;;;;;5271385;28;20373;-80
2022/11/18 10:02:45;;;;;;;8.10;3.35;;;;;;;;;;5270765;28;20029;-80
2022/11/18 10:05:21;;;;;;;5.65;3.30;;;;;;;;;;5273581;28;20029;-79
2022/11/18 10:08:17;;;;;;;6.10;3.00;;;;;;;;;;5291467;28;20021;-81
2022/11/18 10:11:06;;;;;;;12.85;3.03;;;;;;;;;;5283895;28;20041;-81
2022/11/18 10:13:57;;;;;;;10.07;3.25;;;;;;;;;;5287125;28;20082;-81
2022/11/18 10:16:31;;;;;;;6.60;2.72;;;;;;;;;;5286465;28;20025;-82
2022/11/18 10:19:21;;;;;;;5.78;2.83;;;;;;;;;;5286911;28;20928;-81
2022/11/18 10:22:10;;;;;;;7.00;2.85;;;;;;;;;;5287172;28;20044;-82
2022/11/18 10:24:44;;;;;;;7.43;2.53;;;;;;;;;;5286227;28;20083;-82
2022/11/18 10:27:16;;;;;;;6.72;2.53;;;;;;;;;;5286020;28;20029;-81
2022/11/18 10:29:54;;;;;;;10.05;2.60;;;;;;;;;;5286449;28;20033;-82
2022/11/18 10:32:25;;;;;;;6.07;1.77;;;;;;;;;;5287079;28;20580;-82
2022/11/18 10:34:57;;;;;;;7.83;2.10;;;;;;;;;;5288196;28;20134;-81
2022/11/18 10:37:30;;;;;;;8.25;2.25;;;;;;;;;;5285078;28;20271;-82
2022/11/18 10:40:02;;;;;;;6.05;2.50;;;;;;;;;;5280396;28;20028;-81
2022/11/18 10:42:36;;;;;;;4.18;1.92;;;;;;;;;;5281958;28;20037;-80
2022/11/18 10:45:19;;;;;;;7.55;2.10;;;;;;;;;;5269042;28;20432;-80
2022/11/18 10:47:58;;;;;;;6.97;2.40;;;;;;;;;;5292358;28;20096;-81
2022/11/18 10:50:34;;;;;;;7.63;2.10;;;;;;;;;;5284405;28;20108;-80
2022/11/18 10:53:16;;;;;;;7.40;2.50;;;;;;;;;;5267164;28;20486;-81
2022/11/18 10:55:56;;;;;;;5.53;2.08;;;;;;;;;;5267259;28;20282;-80
2022/11/18 10:58:30;;;;;;;5.93;2.25;;;;;;;;;;5285907;28;20025;-80
2022/11/18 11:01:21;;;;;;;6.28;2.35;;;;;;;;;;5284309;28;20028;-80
2022/11/18 11:03:59;;;;;;;7.38;2.60;;;;;;;;;;5285086;28;20500;-82
2022/11/18 11:06:32;;;;;;;8.02;2.38;;;;;;;;;;5284172;28;20102;-80
2022/11/18 11:09:22;;;;;;;6.75;2.38;;;;;;;;;;5283346;28;20182;-81
2022/11/18 11:11:58;;;;;;;7.97;2.63;;;;;;;;;;5284297;28;20071;-81
2022/11/18 11:14:31;;;;;;;8.27;2.70;;;;;;;;;;5283392;28;20032;-81
2022/11/18 11:17:08;;;;;;;7.25;2.70;;;;;;;;;;5285325;28;20840;-80
2022/11/18 11:19:40;;;;;;;6.63;2.40;;;;;;;;;;5284984;28;20036;-80
2022/11/18 11:22:12;;;;;;;9.95;2.45;;;;;;;;;;5284615;28;20457;-80
2022/11/18 11:24:43;;;;;;;6.25;2.17;;;;;;;;;;5284020;28;20024;-80
2022/11/18 11:27:24;;;;;;;10.30;2.80;;;;;;;;;;5282444;28;20055;-81
2022/11/18 11:30:03;;;;;;;6.53;2.00;;;;;;;;;;5276447;28;20060;-81
2022/11/18 11:32:34;;;;;;;6.03;2.30;;;;;;;;;;5284333;28;20025;-81
2022/11/18 11:35:21;;;;;;;6.90;2.40;;;;;;;;;;5283006;28;20037;-79
2022/11/18 11:38:10;;;;;;;5.85;2.20;;;;;;;;;;5283277;28;20768;-79
2022/11/18 11:40:49;;;;;;;6.55;3.03;;;;;;;;;;5286488;28;20039;-81
2022/11/18 11:43:46;;;;;;;8.57;2.60;;;;;;;;;;5267164;28;20385;-81
2022/11/18 11:46:21;;;;;;;7.95;2.63;;;;;;;;;;5256648;28;20405;-81
2022/11/18 11:48:55;;;;;;;8.75;2.35;;;;;;;;;;5283791;28;20048;-81
2022/11/18 11:51:34;;;;;;;5.60;2.47;;;;;;;;;;5284894;28;20049;-81
2022/11/18 11:54:23;;;;;;;4.63;2.40;;;;;;;;;;5264780;28;20520;-80
2022/11/18 11:56:54;;;;;;;6.25;2.63;;;;;;;;;;5282903;28;20024;-82
2022/11/18 11:59:25;;;;;;;9.15;3.03;;;;;;;;;;5282967;28;20017;-79
2022/11/18 12:02:17;;;;;;;7.63;2.80;;;;;;;;;;5282877;28;20017;-79
2022/11/18 12:04:53;;;;;;;8.43;2.75;;;;;;;;;;5264050;28;20029;-79
2022/11/18 12:07:24;;;;;;;;;;;;;;;;;;5283159;28;20021;-80
2022/11/18 12:10:20;;;;;;;8.88;2.80;;;;;;;;;;5282603;28;19959;-80
2022/11/18 12:13:08;;;;;;;10.38;2.63;;;;;;;;;;5282457;28;20087;-80
2022/11/18 12:15:39;;;;;;;;;;;;;;;;;;5279010;28;20027;-80
2022/11/18 12:18:20;;;;;;;6.78;2.47;;;;;;;;;;5280399;28;19912;-80
2022/11/18 12:20:52;;;;;;;11.30;2.70;;;;;;;;;;5274267;28;20481;-80
2022/11/18 12:23:27;;;;;;;5.25;2.17;;;;;;;;;;5271189;28;20026;-80
2022/11/18 12:26:00;;;;;;;7.90;2.30;;;;;;;;;;5261015;28;20025;-80
2022/11/18 12:28:36;;;;;;;8.13;3.25;;;;;;;;;;5260044;28;20058;-80
2022/11/18 12:31:16;;;;;;;8.35;2.70;;;;;;;;;;5261602;28;20037;-80
2022/11/18 12:33:55;;;;;;;8.80;2.10;;;;;;;;;;5259763;28;20083;-80
2022/11/18 12:36:37;;;;;;;8.30;2.22;;;;;;;;;;5280839;28;20130;-79
2022/11/18 12:39:24;;;;;;;10.88;2.40;;;;;;;;;;5282317;28;20470;-79
2022/11/18 12:44:49;;;;;;;6.13;2.20;;;;;;;;;;5281924;28;20040;-80
2022/11/18 12:47:39;;;;;;;5.38;2.33;;;;;;;;;;5280449;28;20061;-79
2022/11/18 12:50:11;;;;;;;5.30;2.35;;;;;;;;;;5284551;28;20482;-79
2022/11/18 12:52:43;;;;;;;6.93;2.97;;;;;;;;;;5285935;28;20029;-79
2022/11/18 12:55:19;;;;;;;5.00;2.20;;;;;;;;;;5283552;28;20044;-79
2022/11/18 12:57:50;;;;;;;;;;;;;;;;;;5286104;28;20033;-80
2022/11/18 13:00:21;;;;;;;12.35;3.38;;;;;;;;;;5279236;28;19923;-80
2022/11/18 13:02:54;;;;;;;14.20;3.83;;;;;;;;;;5283219;28;20029;-80
2022/11/18 13:05:31;;;;;;;11.88;2.60;;;;;;;;;;5284395;28;20075;-80
2022/11/18 13:08:14;;;;;;;7.30;2.92;;;;;;;;;;5285143;28;20108;-79
2022/11/18 13:10:47;;;;;;;15.05;3.53;;;;;;;;;;5283470;28;20033;-80
2022/11/18 13:13:24;;;;;;;14.82;2.67;;;;;;;;;;5268435;28;20029;-80
2022/11/18 13:18:48;;;;;;;7.35;2.72;;;;;;;;;;5264748;28;20386;-79
2022/11/18 13:24:15;;;;;;;9.80;2.67;;;;;;;;;;5281772;28;20018;-79
2022/11/18 13:26:47;;;;;;;7.38;2.20;;;;;;;;;;5264006;28;20025;-80
2022/11/18 13:29:48;;;;;;;11.20;3.17;;;;;;;;;;5273620;28;20038;-80
2022/11/18 13:32:21;;;;;;;6.40;2.30;;;;;;;;;;5257041;28;20037;-80
2022/11/18 13:34:53;;;;;;;5.07;2.25;;;;;;;;;;5282136;28;20072;-81
2022/11/18 13:37:28;;;;;;;6.18;2.78;;;;;;;;;;5267957;28;20018;-80
2022/11/18 13:39:59;;;;;;;10.52;3.05;;;;;;;;;;5251341;28;20025;-82
2022/11/18 13:42:33;;;;;;;7.40;3.25;;;;;;;;;;5267328;28;20032;-81
2022/11/18 13:45:06;;;;;;;8.48;2.65;;;;;;;;;;5265933;28;20025;-80
2022/11/18 13:47:44;;;;;;;7.93;2.78;;;;;;;;;;5256723;28;20061;-81
2022/11/18 13:50:26;;;;;;;10.70;2.97;;;;;;;;;;5226765;28;20038;-81
2022/11/18 13:53:12;;;;;;;8.13;2.65;;;;;;;;;;5243157;28;20034;-81
2022/11/18 13:55:54;;;;;;;10.55;2.65;;;;;;;;;;5243654;28;20030;-82
2022/11/18 13:58:39;;;;;;;5.57;2.40;;;;;;;;;;5241493;28;20018;-81
2022/11/18 14:01:15;;;;;;;8.88;2.80;;;;;;;;;;5242394;28;20034;-80
2022/11/18 14:03:57;;;;;;;6.20;2.25;;;;;;;;;;5241446;28;20018;-81
2022/11/18 14:06:33;;;;;;;4.95;2.67;;;;;;;;;;5243403;28;20030;-81
2022/11/18 14:09:10;;;;;;;10.93;2.88;;;;;;;;;;5236580;28;20167;-81
2022/11/18 14:11:42;;;;;;;6.25;2.38;;;;;;;;;;5242598;28;20096;-81
2022/11/18 14:14:26;;;;;;;7.00;2.88;;;;;;;;;;5239952;28;20157;-81
2022/11/18 14:17:06;;;;;;;9.30;2.95;;;;;;;;;;5238216;28;20037;-82
2022/11/18 14:19:38;;;;;;;8.82;3.00;;;;;;;;;;5236867;28;20154;-81
2022/11/18 14:22:12;;;;;;;6.15;2.50;;;;;;;;;;5236371;28;20131;-81
2022/11/18 14:24:52;;;;;;;9.40;2.22;;;;;;;;;;5236179;28;20026;-81
2022/11/18 14:27:26;;;;;;;9.88;2.92;;;;;;;;;;5234845;28;20037;-81
2022/11/18 14:29:58;;;;;;;6.13;2.50;;;;;;;;;;5235314;28;20042;-81
2022/11/18 14:32:29;;;;;;;5.43;2.60;;;;;;;;;;5235018;28;20037;-81
2022/11/18 14:35:00;;;;;;;5.63;2.38;;;;;;;;;;5237157;28;20128;-81
2022/11/18 14:37:32;;;;;;;8.38;2.85;;;;;;;;;;5236414;28;20521;-81
2022/11/18 14:40:03;;;;;;;7.80;2.87;;;;;;;;;;5235054;28;20045;-81
2022/11/18 14:42:34;;;;;;;8.25;2.58;;;;;;;;;;5229238;28;20285;-81
2022/11/18 14:45:05;;;;;;;5.05;2.05;;;;;;;;;;5238656;28;20069;-81
2022/11/18 14:47:38;;;;;;;7.55;2.55;;;;;;;;;;5252912;28;20048;-81
2022/11/18 14:50:12;;;;;;;6.57;2.63;;;;;;;;;;5283882;28;20477;-81
2022/11/18 14:52:44;;;;;;;6.93;2.22;;;;;;;;;;5287420;28;20037;-81
2022/11/18 14:55:15;;;;;;;16.30;2.40;;;;;;;;;;5287463;28;20367;-80
2022/11/18 14:57:46;;;;;;;3.77;2.30;;;;;;;;;;5262663;28;20024;-80
2022/11/18 15:00:18;;;;;;;8.10;2.67;;;;;;;;;;5289323;28;20227;-81
2022/11/18 15:02:49;;;;;;;4.80;2.58;;;;;;;;;;5286074;28;20275;-82
2022/11/18 15:05:20;;;;;;;5.93;2.80;;;;;;;;;;5284779;28;20043;-79
2022/11/18 15:07:52;;;;;;;7.47;2.83;;;;;;;;;;5278963;28;20025;-82
2022/11/18 15:10:23;;;;;;;7.45;3.10;;;;;;;;;;5282682;28;20051;-81
2022/11/18 15:12:54;;;;;;;9.63;3.03;;;;;;;;;;5281629;28;20029;-82
2022/11/18 15:15:26;;;;;;;5.25;3.10;;;;;;;;;;5282675;28;20083;-82
2022/11/18 15:17:58;;;;;;;7.88;3.05;;;;;;;;;;5262768;28;20029;-81
2022/11/18 15:20:29;;;;;;;6.43;3.13;;;;;;;;;;5279195;28;20064;-80
2022/11/18 15:23:00;;;;;;;9.80;3.35;;;;;;;;;;5262741;28;20025;-81
2022/11/18 15:25:32;;;;;;;9.32;3.33;;;;;;;;;;5282072;28;20033;-81
2022/11/18 15:28:03;;;;;;;8.97;3.77;;;;;;;;;;5264073;28;20017;-80
2022/11/18 15:30:34;;;;;;;7.97;3.55;;;;;;;;;;5262871;28;20794;-80
2022/11/18 15:33:05;;;;;;;12.57;3.95;;;;;;;;;;5277209;28;20025;-81
2022/11/18 15:35:37;;;;;;;10.48;4.30;;;;;;;;;;5279290;28;20116;-81
2022/11/18 15:38:11;;;;;;;10.23;4.63;;;;;;;;;;5278940;28;20186;-81
2022/11/18 15:40:42;;;;;;;7.40;4.88;;;;;;;;;;5278612;28;20049;-80
2022/11/18 15:43:13;;;;;;;9.13;5.03;;;;;;;;;;5261777;28;20064;-80